sensor_id;sensor_type;location;lat;lon;timestamp;temperature;humidity
65854;DHT22;52627;48.838;2.402;2022-09-13T00:00:58;23.80;53.13
65854;DHT22;52627;48.838;2.402;2022-09-13T00:03:26;23.79;53.14
65854;DHT22;52627;48.838;2.402;2022-09-13T00:05:54;23.78;53.15
65854;DHT22;52627;48.838;2.402;2022-09-13T00:08:22;23.78;53.21
65854;DHT22;52627;48.838;2.402;2022-09-13T00:10:50;23.76;53.30
65854;DHT22;52627;48.838;2.402;2022-09-13T00:13:17;23.75;53.38
65854;DHT22;52627;48.838;2.402;2022-09-13T00:15:45;23.74;53.41
65854;DHT22;52627;48.838;2.402;2022-09-13T00:18:15;23.73;53.48
65854;DHT22;52627;48.838;2.402;2022-09-13T00:20:44;23.71;53.52
65854;DHT22;52627;48.838;2.402;2022-09-13T00:23:12;23.70;53.60
65854;DHT22;52627;48.838;2.402;2022-09-13T00:25:39;23.69;53.60
65854;DHT22;52627;48.838;2.402;2022-09-13T00:28:07;23.69;53.67
65854;DHT22;52627;48.838;2.402;2022-09-13T00:30:35;23.68;53.75
65854;DHT22;52627;48.838;2.402;2022-09-13T00:33:02;23.66;53.79
65854;DHT22;52627;48.838;2.402;2022-09-13T00:35:30;23.66;53.85
65854;DHT22;52627;48.838;2.402;2022-09-13T00:37:58;23.64;53.89
65854;DHT22;52627;48.838;2.402;2022-09-13T00:40:27;23.64;53.92
65854;DHT22;52627;48.838;2.402;2022-09-13T00:42:56;23.62;54.00
65854;DHT22;52627;48.838;2.402;2022-09-13T00:45:24;23.61;54.00
65854;DHT22;52627;48.838;2.402;2022-09-13T00:50:24;23.58;54.09
65854;DHT22;52627;48.838;2.402;2022-09-13T00:53:09;23.54;54.18
65854;DHT22;52627;48.838;2.402;2022-09-13T00:58:31;23.45;54.31
65854;DHT22;52627;48.838;2.402;2022-09-13T01:01:02;23.43;54.41
65854;DHT22;52627;48.838;2.402;2022-09-13T01:03:35;23.38;54.55
65854;DHT22;52627;48.838;2.402;2022-09-13T01:06:06;23.30;54.69
65854;DHT22;52627;48.838;2.402;2022-09-13T01:08:59;23.24;54.82
65854;DHT22;52627;48.838;2.402;2022-09-13T01:14:31;23.11;55.05
65854;DHT22;52627;48.838;2.402;2022-09-13T01:17:00;23.06;55.22
65854;DHT22;52627;48.838;2.402;2022-09-13T01:19:27;23.00;55.34
65854;DHT22;52627;48.838;2.402;2022-09-13T01:24:54;22.97;55.45
65854;DHT22;52627;48.838;2.402;2022-09-13T01:28:07;23.00;55.54
65854;DHT22;52627;48.838;2.402;2022-09-13T01:30:58;23.02;55.62
65854;DHT22;52627;48.838;2.402;2022-09-13T01:36:37;23.05;55.74
65854;DHT22;52627;48.838;2.402;2022-09-13T01:39:20;23.07;55.80
65854;DHT22;52627;48.838;2.402;2022-09-13T01:45:25;23.08;55.80
65854;DHT22;52627;48.838;2.402;2022-09-13T01:48:09;23.07;55.80
65854;DHT22;52627;48.838;2.402;2022-09-13T01:50:50;23.09;55.82
65854;DHT22;52627;48.838;2.402;2022-09-13T01:56:09;23.07;55.84
65854;DHT22;52627;48.838;2.402;2022-09-13T01:59:06;23.05;55.89
65854;DHT22;52627;48.838;2.402;2022-09-13T02:04:39;23.00;55.95
65854;DHT22;52627;48.838;2.402;2022-09-13T02:07:16;23.00;55.96
65854;DHT22;52627;48.838;2.402;2022-09-13T02:09:58;22.99;55.99
65854;DHT22;52627;48.838;2.402;2022-09-13T02:12:35;22.98;56.03
65854;DHT22;52627;48.838;2.402;2022-09-13T02:15:14;22.97;56.09
65854;DHT22;52627;48.838;2.402;2022-09-13T02:18:27;22.96;56.10
65854;DHT22;52627;48.838;2.402;2022-09-13T02:20:39;22.95;56.13
65854;DHT22;52627;48.838;2.402;2022-09-13T02:23:12;22.93;56.15
65854;DHT22;52627;48.838;2.402;2022-09-13T02:25:45;22.95;56.20
65854;DHT22;52627;48.838;2.402;2022-09-13T02:28:17;22.94;56.20
65854;DHT22;52627;48.838;2.402;2022-09-13T02:30:50;22.93;56.24
65854;DHT22;52627;48.838;2.402;2022-09-13T02:35:59;22.94;56.29
65854;DHT22;52627;48.838;2.402;2022-09-13T02:38:33;22.92;56.31
65854;DHT22;52627;48.838;2.402;2022-09-13T02:41:34;22.90;56.35
65854;DHT22;52627;48.838;2.402;2022-09-13T02:44:39;22.85;56.40
65854;DHT22;52627;48.838;2.402;2022-09-13T02:55:53;22.79;56.44
65854;DHT22;52627;48.838;2.402;2022-09-13T02:58:29;22.75;56.48
65854;DHT22;52627;48.838;2.402;2022-09-13T03:01:09;22.74;56.51
65854;DHT22;52627;48.838;2.402;2022-09-13T03:03:37;22.70;56.54
65854;DHT22;52627;48.838;2.402;2022-09-13T03:06:05;22.65;56.59
65854;DHT22;52627;48.838;2.402;2022-09-13T03:08:33;22.60;56.62
65854;DHT22;52627;48.838;2.402;2022-09-13T03:17:19;22.54;56.85
65854;DHT22;52627;48.838;2.402;2022-09-13T03:26:26;22.41;57.15
65854;DHT22;52627;48.838;2.402;2022-09-13T03:32:13;22.32;57.43
65854;DHT22;52627;48.838;2.402;2022-09-13T03:37:26;22.29;57.50
65854;DHT22;52627;48.838;2.402;2022-09-13T03:40:05;22.27;57.62
65854;DHT22;52627;48.838;2.402;2022-09-13T03:42:42;22.26;57.70
65854;DHT22;52627;48.838;2.402;2022-09-13T03:45:20;22.26;57.69
65854;DHT22;52627;48.838;2.402;2022-09-13T03:47:52;22.28;57.71
65854;DHT22;52627;48.838;2.402;2022-09-13T03:50:21;22.28;57.80
65854;DHT22;52627;48.838;2.402;2022-09-13T03:52:59;22.27;57.81
65854;DHT22;52627;48.838;2.402;2022-09-13T03:55:31;22.31;57.88
65854;DHT22;52627;48.838;2.402;2022-09-13T03:57:59;22.33;57.83
65854;DHT22;52627;48.838;2.402;2022-09-13T04:00:27;22.34;57.88
65854;DHT22;52627;48.838;2.402;2022-09-13T04:02:55;22.37;57.85
65854;DHT22;52627;48.838;2.402;2022-09-13T04:05:23;22.40;57.81
65854;DHT22;52627;48.838;2.402;2022-09-13T04:07:50;22.42;57.80
65854;DHT22;52627;48.838;2.402;2022-09-13T04:10:18;22.43;57.80
65854;DHT22;52627;48.838;2.402;2022-09-13T04:12:45;22.44;57.80
65854;DHT22;52627;48.838;2.402;2022-09-13T04:15:12;22.45;57.80
65854;DHT22;52627;48.838;2.402;2022-09-13T04:17:40;22.48;57.79
65854;DHT22;52627;48.838;2.402;2022-09-13T04:20:07;22.50;57.72
65854;DHT22;52627;48.838;2.402;2022-09-13T04:22:35;22.52;57.70
65854;DHT22;52627;48.838;2.402;2022-09-13T04:25:03;22.54;57.70
65854;DHT22;52627;48.838;2.402;2022-09-13T04:27:31;22.56;57.70
65854;DHT22;52627;48.838;2.402;2022-09-13T04:29:59;22.58;57.67
65854;DHT22;52627;48.838;2.402;2022-09-13T04:32:26;22.58;57.64
65854;DHT22;52627;48.838;2.402;2022-09-13T04:34:54;22.60;57.60
65854;DHT22;52627;48.838;2.402;2022-09-13T04:37:22;22.61;57.59
65854;DHT22;52627;48.838;2.402;2022-09-13T04:39:49;22.62;57.54
65854;DHT22;52627;48.838;2.402;2022-09-13T04:42:17;22.63;57.53
65854;DHT22;52627;48.838;2.402;2022-09-13T04:44:45;22.64;57.56
65854;DHT22;52627;48.838;2.402;2022-09-13T04:47:16;22.65;57.56
65854;DHT22;52627;48.838;2.402;2022-09-13T04:49:43;22.67;57.51
65854;DHT22;52627;48.838;2.402;2022-09-13T04:52:10;22.69;57.51
65854;DHT22;52627;48.838;2.402;2022-09-13T04:54:38;22.69;57.49
65854;DHT22;52627;48.838;2.402;2022-09-13T04:57:05;22.71;57.49
65854;DHT22;52627;48.838;2.402;2022-09-13T04:59:33;22.71;57.49
65854;DHT22;52627;48.838;2.402;2022-09-13T05:02:00;22.72;57.46
65854;DHT22;52627;48.838;2.402;2022-09-13T05:04:27;22.72;57.49
65854;DHT22;52627;48.838;2.402;2022-09-13T05:06:55;22.74;57.42
65854;DHT22;52627;48.838;2.402;2022-09-13T05:09:24;22.74;57.40
65854;DHT22;52627;48.838;2.402;2022-09-13T05:11:52;22.74;57.40
65854;DHT22;52627;48.838;2.402;2022-09-13T05:14:19;22.75;57.40
65854;DHT22;52627;48.838;2.402;2022-09-13T05:16:47;22.75;57.40
65854;DHT22;52627;48.838;2.402;2022-09-13T05:19:14;22.75;57.40
65854;DHT22;52627;48.838;2.402;2022-09-13T05:21:42;22.76;57.41
65854;DHT22;52627;48.838;2.402;2022-09-13T05:24:09;22.76;57.50
65854;DHT22;52627;48.838;2.402;2022-09-13T05:26:37;22.74;57.55
65854;DHT22;52627;48.838;2.402;2022-09-13T05:29:05;22.74;57.66
65854;DHT22;52627;48.838;2.402;2022-09-13T05:31:34;22.74;57.75
65854;DHT22;52627;48.838;2.402;2022-09-13T05:34:06;22.75;57.84
65854;DHT22;52627;48.838;2.402;2022-09-13T05:36:36;22.73;57.89
65854;DHT22;52627;48.838;2.402;2022-09-13T05:39:05;22.71;57.96
65854;DHT22;52627;48.838;2.402;2022-09-13T05:41:53;22.69;58.00
65854;DHT22;52627;48.838;2.402;2022-09-13T05:44:21;22.67;58.04
65854;DHT22;52627;48.838;2.402;2022-09-13T05:46:48;22.65;58.10
65854;DHT22;52627;48.838;2.402;2022-09-13T05:49:16;22.63;58.20
65854;DHT22;52627;48.838;2.402;2022-09-13T05:51:43;22.63;58.22
65854;DHT22;52627;48.838;2.402;2022-09-13T05:54:11;22.63;58.30
65854;DHT22;52627;48.838;2.402;2022-09-13T05:56:39;22.62;58.30
65854;DHT22;52627;48.838;2.402;2022-09-13T05:59:10;22.62;58.33
65854;DHT22;52627;48.838;2.402;2022-09-13T06:01:39;22.61;58.39
65854;DHT22;52627;48.838;2.402;2022-09-13T06:04:07;22.61;58.46
65854;DHT22;52627;48.838;2.402;2022-09-13T06:06:35;22.60;58.53
65854;DHT22;52627;48.838;2.402;2022-09-13T06:09:02;22.59;58.60
65854;DHT22;52627;48.838;2.402;2022-09-13T06:11:32;22.59;58.66
65854;DHT22;52627;48.838;2.402;2022-09-13T06:14:00;22.57;58.70
65854;DHT22;52627;48.838;2.402;2022-09-13T06:16:27;22.58;58.79
65854;DHT22;52627;48.838;2.402;2022-09-13T06:18:56;22.58;58.78
65854;DHT22;52627;48.838;2.402;2022-09-13T06:21:24;22.59;58.80
65854;DHT22;52627;48.838;2.402;2022-09-13T06:23:55;22.60;58.82
65854;DHT22;52627;48.838;2.402;2022-09-13T06:26:24;22.60;58.90
65854;DHT22;52627;48.838;2.402;2022-09-13T06:28:55;22.61;58.91
65854;DHT22;52627;48.838;2.402;2022-09-13T06:31:24;22.63;58.90
65854;DHT22;52627;48.838;2.402;2022-09-13T06:33:57;22.64;58.88
65854;DHT22;52627;48.838;2.402;2022-09-13T06:36:28;22.65;58.78
65854;DHT22;52627;48.838;2.402;2022-09-13T06:38:58;22.69;58.69
65854;DHT22;52627;48.838;2.402;2022-09-13T06:41:27;22.75;58.59
65854;DHT22;52627;48.838;2.402;2022-09-13T06:43:56;22.79;58.50
65854;DHT22;52627;48.838;2.402;2022-09-13T06:46:26;22.85;58.40
65854;DHT22;52627;48.838;2.402;2022-09-13T06:49:00;22.91;58.31
65854;DHT22;52627;48.838;2.402;2022-09-13T06:51:30;22.98;58.21
65854;DHT22;52627;48.838;2.402;2022-09-13T06:54:00;23.03;58.08
65854;DHT22;52627;48.838;2.402;2022-09-13T06:56:30;23.08;57.98
65854;DHT22;52627;48.838;2.402;2022-09-13T06:59:04;23.11;57.95
65854;DHT22;52627;48.838;2.402;2022-09-13T07:01:35;23.16;57.83
65854;DHT22;52627;48.838;2.402;2022-09-13T07:04:05;23.19;57.80
65854;DHT22;52627;48.838;2.402;2022-09-13T07:06:42;23.21;57.75
65854;DHT22;52627;48.838;2.402;2022-09-13T07:09:15;23.23;57.69
65854;DHT22;52627;48.838;2.402;2022-09-13T07:11:49;23.21;57.70
65854;DHT22;52627;48.838;2.402;2022-09-13T07:14:22;23.21;57.69
65854;DHT22;52627;48.838;2.402;2022-09-13T07:16:53;23.18;57.70
65854;DHT22;52627;48.838;2.402;2022-09-13T07:19:25;23.20;57.70
65854;DHT22;52627;48.838;2.402;2022-09-13T07:21:54;23.20;57.70
65854;DHT22;52627;48.838;2.402;2022-09-13T07:24:23;23.19;57.70
65854;DHT22;52627;48.838;2.402;2022-09-13T07:26:51;23.15;57.72
65854;DHT22;52627;48.838;2.402;2022-09-13T07:29:19;23.16;57.78
65854;DHT22;52627;48.838;2.402;2022-09-13T07:31:50;23.14;57.72
65854;DHT22;52627;48.838;2.402;2022-09-13T07:34:21;23.13;57.80
65854;DHT22;52627;48.838;2.402;2022-09-13T07:36:50;23.16;57.79
65854;DHT22;52627;48.838;2.402;2022-09-13T07:39:19;23.18;57.74
65854;DHT22;52627;48.838;2.402;2022-09-13T07:41:49;23.17;57.80
65854;DHT22;52627;48.838;2.402;2022-09-13T07:44:17;23.22;57.80
65854;DHT22;52627;48.838;2.402;2022-09-13T07:46:45;23.27;57.75
65854;DHT22;52627;48.838;2.402;2022-09-13T07:49:13;23.29;57.72
65854;DHT22;52627;48.838;2.402;2022-09-13T07:51:44;23.30;57.75
65854;DHT22;52627;48.838;2.402;2022-09-13T07:54:12;23.34;57.74
65854;DHT22;52627;48.838;2.402;2022-09-13T07:56:42;23.40;57.70
65854;DHT22;52627;48.838;2.402;2022-09-13T07:59:12;23.45;57.63
65854;DHT22;52627;48.838;2.402;2022-09-13T08:01:45;23.50;57.54
65854;DHT22;52627;48.838;2.402;2022-09-13T08:04:16;23.51;57.43
65854;DHT22;52627;48.838;2.402;2022-09-13T08:06:47;23.52;57.45
65854;DHT22;52627;48.838;2.402;2022-09-13T08:09:15;23.55;57.36
65854;DHT22;52627;48.838;2.402;2022-09-13T08:11:46;23.57;57.30
65854;DHT22;52627;48.838;2.402;2022-09-13T08:14:19;23.57;57.30
65854;DHT22;52627;48.838;2.402;2022-09-13T08:16:49;23.63;57.37
65854;DHT22;52627;48.838;2.402;2022-09-13T08:19:17;23.69;57.26
65854;DHT22;52627;48.838;2.402;2022-09-13T08:21:45;23.73;57.20
65854;DHT22;52627;48.838;2.402;2022-09-13T08:24:14;23.74;57.14
65854;DHT22;52627;48.838;2.402;2022-09-13T08:26:47;23.76;57.09
65854;DHT22;52627;48.838;2.402;2022-09-13T08:29:15;23.76;57.00
65854;DHT22;52627;48.838;2.402;2022-09-13T08:31:43;23.76;57.02
65854;DHT22;52627;48.838;2.402;2022-09-13T08:34:12;23.80;57.02
65854;DHT22;52627;48.838;2.402;2022-09-13T08:36:41;23.84;56.92
65854;DHT22;52627;48.838;2.402;2022-09-13T08:39:09;23.81;56.79
65854;DHT22;52627;48.838;2.402;2022-09-13T08:44:17;23.69;56.89
65854;DHT22;52627;48.838;2.402;2022-09-13T08:47:00;23.74;56.91
65854;DHT22;52627;48.838;2.402;2022-09-13T08:49:41;23.79;56.90
65854;DHT22;52627;48.838;2.402;2022-09-13T08:54:41;23.85;56.83
65854;DHT22;52627;48.838;2.402;2022-09-13T08:57:20;23.86;56.87
65854;DHT22;52627;48.838;2.402;2022-09-13T09:05:43;23.93;57.17
65854;DHT22;52627;48.838;2.402;2022-09-13T09:08:23;23.99;57.12
65854;DHT22;52627;48.838;2.402;2022-09-13T09:10:58;24.05;57.09
65854;DHT22;52627;48.838;2.402;2022-09-13T09:13:41;24.15;57.06
65854;DHT22;52627;48.838;2.402;2022-09-13T09:18:54;24.40;56.81
65854;DHT22;52627;48.838;2.402;2022-09-13T09:21:26;24.47;56.69
65854;DHT22;52627;48.838;2.402;2022-09-13T09:23:54;24.51;56.66
65854;DHT22;52627;48.838;2.402;2022-09-13T09:26:26;24.58;56.58
65854;DHT22;52627;48.838;2.402;2022-09-13T09:28:57;24.61;56.41
65854;DHT22;52627;48.838;2.402;2022-09-13T09:31:33;24.63;56.39
65854;DHT22;52627;48.838;2.402;2022-09-13T09:37:12;24.68;57.93
65854;DHT22;52627;48.838;2.402;2022-09-13T09:39:47;24.66;57.93
65854;DHT22;52627;48.838;2.402;2022-09-13T09:42:23;24.70;57.93
65854;DHT22;52627;48.838;2.402;2022-09-13T09:44:57;24.72;58.05
65854;DHT22;52627;48.838;2.402;2022-09-13T09:47:41;24.73;58.08
65854;DHT22;52627;48.838;2.402;2022-09-13T09:50:14;24.71;58.12
65854;DHT22;52627;48.838;2.402;2022-09-13T09:52:52;24.74;58.24
65854;DHT22;52627;48.838;2.402;2022-09-13T09:58:06;24.80;58.07
65854;DHT22;52627;48.838;2.402;2022-09-13T10:00:36;24.74;57.87
65854;DHT22;52627;48.838;2.402;2022-09-13T10:03:27;24.66;57.76
65854;DHT22;52627;48.838;2.402;2022-09-13T10:08:39;24.59;57.65
65854;DHT22;52627;48.838;2.402;2022-09-13T10:11:08;24.59;57.46
65854;DHT22;52627;48.838;2.402;2022-09-13T10:13:36;24.62;57.35
65854;DHT22;52627;48.838;2.402;2022-09-13T10:16:05;24.62;57.24
65854;DHT22;52627;48.838;2.402;2022-09-13T10:18:52;24.68;57.22
65854;DHT22;52627;48.838;2.402;2022-09-13T10:21:21;24.80;57.04
65854;DHT22;52627;48.838;2.402;2022-09-13T10:23:53;24.83;56.63
65854;DHT22;52627;48.838;2.402;2022-09-13T10:26:45;24.83;56.52
65854;DHT22;52627;48.838;2.402;2022-09-13T10:29:13;24.83;56.36
65854;DHT22;52627;48.838;2.402;2022-09-13T10:31:43;24.85;56.29
65854;DHT22;52627;48.838;2.402;2022-09-13T10:34:17;24.88;56.05
65854;DHT22;52627;48.838;2.402;2022-09-13T10:36:55;24.91;55.89
65854;DHT22;52627;48.838;2.402;2022-09-13T10:39:27;24.95;55.85
65854;DHT22;52627;48.838;2.402;2022-09-13T10:41:59;25.04;55.68
65854;DHT22;52627;48.838;2.402;2022-09-13T10:47:18;25.23;55.51
65854;DHT22;52627;48.838;2.402;2022-09-13T10:52:53;25.27;55.13
65854;DHT22;52627;48.838;2.402;2022-09-13T10:55:23;25.33;54.96
65854;DHT22;52627;48.838;2.402;2022-09-13T11:00:38;25.52;54.71
65854;DHT22;52627;48.838;2.402;2022-09-13T11:04:23;25.67;54.58
65854;DHT22;52627;48.838;2.402;2022-09-13T11:06:38;25.87;54.36
65854;DHT22;52627;48.838;2.402;2022-09-13T11:10:12;26.07;53.99
65854;DHT22;52627;48.838;2.402;2022-09-13T11:32:14;26.99;50.77
65854;DHT22;52627;48.838;2.402;2022-09-13T11:43:37;27.36;49.44
65854;DHT22;52627;48.838;2.402;2022-09-13T11:46:46;27.32;49.40
65854;DHT22;52627;48.838;2.402;2022-09-13T11:49:48;27.30;49.23
65854;DHT22;52627;48.838;2.402;2022-09-13T11:53:06;27.25;48.91
65854;DHT22;52627;48.838;2.402;2022-09-13T11:56:05;27.11;48.72
65854;DHT22;52627;48.838;2.402;2022-09-13T11:58:46;27.08;48.83
65854;DHT22;52627;48.838;2.402;2022-09-13T12:01:30;27.11;48.68
65854;DHT22;52627;48.838;2.402;2022-09-13T12:04:05;27.11;48.55
65854;DHT22;52627;48.838;2.402;2022-09-13T12:06:44;27.05;48.46
65854;DHT22;52627;48.838;2.402;2022-09-13T12:09:24;26.98;48.47
65854;DHT22;52627;48.838;2.402;2022-09-13T12:12:00;26.98;48.64
65854;DHT22;52627;48.838;2.402;2022-09-13T12:14:49;27.05;48.67
65854;DHT22;52627;48.838;2.402;2022-09-13T12:19:57;27.24;48.62
65854;DHT22;52627;48.838;2.402;2022-09-13T12:22:28;27.31;48.59
65854;DHT22;52627;48.838;2.402;2022-09-13T12:25:01;27.33;48.40
65854;DHT22;52627;48.838;2.402;2022-09-13T12:30:19;27.45;48.32
65854;DHT22;52627;48.838;2.402;2022-09-13T12:32:50;27.51;48.30
65854;DHT22;52627;48.838;2.402;2022-09-13T12:35:39;27.59;48.35
65854;DHT22;52627;48.838;2.402;2022-09-13T12:59:24;28.09;47.39
65854;DHT22;52627;48.838;2.402;2022-09-13T13:02:40;28.05;47.43
65854;DHT22;52627;48.838;2.402;2022-09-13T13:05:23;27.93;47.10
65854;DHT22;52627;48.838;2.402;2022-09-13T13:07:57;27.72;47.27
65854;DHT22;52627;48.838;2.402;2022-09-13T13:10:33;27.69;47.43
65854;DHT22;52627;48.838;2.402;2022-09-13T13:18:20;27.77;47.51
65854;DHT22;52627;48.838;2.402;2022-09-13T13:29:21;27.85;48.58
65854;DHT22;52627;48.838;2.402;2022-09-13T13:39:45;28.26;48.64
65854;DHT22;52627;48.838;2.402;2022-09-13T13:42:21;28.34;48.43
65854;DHT22;52627;48.838;2.402;2022-09-13T13:49:51;28.39;47.98
65854;DHT22;52627;48.838;2.402;2022-09-13T13:52:42;28.32;47.85
65854;DHT22;52627;48.838;2.402;2022-09-13T14:01:57;28.17;47.88
65854;DHT22;52627;48.838;2.402;2022-09-13T14:10:26;28.05;48.06
65854;DHT22;52627;48.838;2.402;2022-09-13T14:13:24;28.01;48.22
65854;DHT22;52627;48.838;2.402;2022-09-13T14:19:16;28.03;48.38
65854;DHT22;52627;48.838;2.402;2022-09-13T14:24:49;28.05;48.47
65854;DHT22;52627;48.838;2.402;2022-09-13T14:27:25;28.02;48.59
65854;DHT22;52627;48.838;2.402;2022-09-13T14:30:00;28.01;48.65
65854;DHT22;52627;48.838;2.402;2022-09-13T14:32:44;28.00;48.76
65854;DHT22;52627;48.838;2.402;2022-09-13T14:35:25;28.02;48.86
65854;DHT22;52627;48.838;2.402;2022-09-13T14:38:09;28.07;48.92
65854;DHT22;52627;48.838;2.402;2022-09-13T14:41:21;28.11;49.01
65854;DHT22;52627;48.838;2.402;2022-09-13T14:43:48;28.14;49.11
65854;DHT22;52627;48.838;2.402;2022-09-13T14:48:59;28.17;49.18
65854;DHT22;52627;48.838;2.402;2022-09-13T14:51:40;28.15;49.17
65854;DHT22;52627;48.838;2.402;2022-09-13T14:57:08;28.06;49.32
65854;DHT22;52627;48.838;2.402;2022-09-13T14:59:57;28.01;49.32
65854;DHT22;52627;48.838;2.402;2022-09-13T15:02:34;27.93;49.43
65854;DHT22;52627;48.838;2.402;2022-09-13T15:05:06;27.93;49.48
65854;DHT22;52627;48.838;2.402;2022-09-13T15:07:41;27.92;49.57
65854;DHT22;52627;48.838;2.402;2022-09-13T15:13:05;27.85;49.81
65854;DHT22;52627;48.838;2.402;2022-09-13T15:15:37;27.81;49.92
65854;DHT22;52627;48.838;2.402;2022-09-13T15:23:31;27.74;50.24
65854;DHT22;52627;48.838;2.402;2022-09-13T15:26:18;27.69;50.33
65854;DHT22;52627;48.838;2.402;2022-09-13T15:28:53;27.66;50.44
65854;DHT22;52627;48.838;2.402;2022-09-13T15:31:32;27.63;50.52
65854;DHT22;52627;48.838;2.402;2022-09-13T15:36:44;27.65;50.80
65854;DHT22;52627;48.838;2.402;2022-09-13T15:39:17;27.64;50.88
65854;DHT22;52627;48.838;2.402;2022-09-13T15:44:19;27.77;50.94
65854;DHT22;52627;48.838;2.402;2022-09-13T15:46:51;27.82;50.95
65854;DHT22;52627;48.838;2.402;2022-09-13T15:49:22;27.89;51.01
65854;DHT22;52627;48.838;2.402;2022-09-13T15:51:57;27.96;50.91
65854;DHT22;52627;48.838;2.402;2022-09-13T15:54:34;28.00;50.96
65854;DHT22;52627;48.838;2.402;2022-09-13T15:57:05;28.05;50.88
65854;DHT22;52627;48.838;2.402;2022-09-13T15:59:38;28.08;50.81
65854;DHT22;52627;48.838;2.402;2022-09-13T16:02:16;28.04;50.86
65854;DHT22;52627;48.838;2.402;2022-09-13T16:04:57;28.06;50.83
65854;DHT22;52627;48.838;2.402;2022-09-13T16:07:25;28.02;50.87
65854;DHT22;52627;48.838;2.402;2022-09-13T16:09:52;28.01;50.90
65854;DHT22;52627;48.838;2.402;2022-09-13T16:12:20;28.07;50.90
65854;DHT22;52627;48.838;2.402;2022-09-13T16:14:50;28.08;50.90
65854;DHT22;52627;48.838;2.402;2022-09-13T16:17:19;28.04;50.93
65854;DHT22;52627;48.838;2.402;2022-09-13T16:19:52;27.97;51.00
65854;DHT22;52627;48.838;2.402;2022-09-13T16:22:21;27.94;51.05
65854;DHT22;52627;48.838;2.402;2022-09-13T16:24:49;27.97;51.04
65854;DHT22;52627;48.838;2.402;2022-09-13T16:27:17;27.98;51.08
65854;DHT22;52627;48.838;2.402;2022-09-13T16:29:46;28.02;51.10
65854;DHT22;52627;48.838;2.402;2022-09-13T16:32:14;28.03;51.14
65854;DHT22;52627;48.838;2.402;2022-09-13T16:34:41;28.02;51.19
65854;DHT22;52627;48.838;2.402;2022-09-13T16:37:16;28.03;51.28
65854;DHT22;52627;48.838;2.402;2022-09-13T16:39:44;28.02;51.33
65854;DHT22;52627;48.838;2.402;2022-09-13T16:42:13;28.00;51.41
65854;DHT22;52627;48.838;2.402;2022-09-13T16:44:43;28.01;51.46
65854;DHT22;52627;48.838;2.402;2022-09-13T16:47:10;28.01;51.49
65854;DHT22;52627;48.838;2.402;2022-09-13T16:49:38;27.99;51.48
65854;DHT22;52627;48.838;2.402;2022-09-13T16:52:05;27.97;51.51
65854;DHT22;52627;48.838;2.402;2022-09-13T16:54:35;27.92;51.55
65854;DHT22;52627;48.838;2.402;2022-09-13T16:57:04;27.86;51.58
65854;DHT22;52627;48.838;2.402;2022-09-13T16:59:33;27.80;51.64
65854;DHT22;52627;48.838;2.402;2022-09-13T17:02:00;27.75;51.70
65854;DHT22;52627;48.838;2.402;2022-09-13T17:04:29;27.71;51.80
65854;DHT22;52627;48.838;2.402;2022-09-13T17:06:57;27.64;51.88
65854;DHT22;52627;48.838;2.402;2022-09-13T17:09:27;27.56;52.00
65854;DHT22;52627;48.838;2.402;2022-09-13T17:11:56;27.47;52.14
65854;DHT22;52627;48.838;2.402;2022-09-13T17:14:24;27.38;52.31
65854;DHT22;52627;48.838;2.402;2022-09-13T17:16:53;27.33;52.45
65854;DHT22;52627;48.838;2.402;2022-09-13T17:19:24;27.28;52.51
65854;DHT22;52627;48.838;2.402;2022-09-13T17:21:57;27.27;52.59
65854;DHT22;52627;48.838;2.402;2022-09-13T17:24:27;27.24;52.69
65854;DHT22;52627;48.838;2.402;2022-09-13T17:26:57;27.22;52.78
65854;DHT22;52627;48.838;2.402;2022-09-13T17:29:25;27.20;52.86
65854;DHT22;52627;48.838;2.402;2022-09-13T17:31:57;27.17;52.97
65854;DHT22;52627;48.838;2.402;2022-09-13T17:34:26;27.15;53.09
65854;DHT22;52627;48.838;2.402;2022-09-13T17:36:54;27.12;53.18
65854;DHT22;52627;48.838;2.402;2022-09-13T17:39:23;27.09;53.26
65854;DHT22;52627;48.838;2.402;2022-09-13T17:41:50;27.06;53.34
65854;DHT22;52627;48.838;2.402;2022-09-13T17:44:18;27.03;53.46
65854;DHT22;52627;48.838;2.402;2022-09-13T17:46:45;27.00;53.57
65854;DHT22;52627;48.838;2.402;2022-09-13T17:49:13;26.95;53.71
65854;DHT22;52627;48.838;2.402;2022-09-13T17:51:40;26.88;53.81
65854;DHT22;52627;48.838;2.402;2022-09-13T17:54:09;26.84;53.93
65854;DHT22;52627;48.838;2.402;2022-09-13T17:56:38;26.79;54.05
65854;DHT22;52627;48.838;2.402;2022-09-13T17:59:14;26.73;54.21
65854;DHT22;52627;48.838;2.402;2022-09-13T18:01:45;26.68;54.37
65854;DHT22;52627;48.838;2.402;2022-09-13T18:04:16;26.62;54.48
65854;DHT22;52627;48.838;2.402;2022-09-13T18:06:47;26.59;54.60
65854;DHT22;52627;48.838;2.402;2022-09-13T18:09:17;26.56;54.75
65854;DHT22;52627;48.838;2.402;2022-09-13T18:11:48;26.52;54.87
65854;DHT22;52627;48.838;2.402;2022-09-13T18:14:18;26.49;54.94
65854;DHT22;52627;48.838;2.402;2022-09-13T18:16:46;26.47;55.04
65854;DHT22;52627;48.838;2.402;2022-09-13T18:19:21;26.45;55.17
65854;DHT22;52627;48.838;2.402;2022-09-13T18:22:10;26.41;55.34
65854;DHT22;52627;48.838;2.402;2022-09-13T18:24:37;26.37;55.45
65854;DHT22;52627;48.838;2.402;2022-09-13T18:27:05;26.33;55.56
65854;DHT22;52627;48.838;2.402;2022-09-13T18:29:33;26.29;55.70
65854;DHT22;52627;48.838;2.402;2022-09-13T18:32:00;26.25;55.84
65854;DHT22;52627;48.838;2.402;2022-09-13T18:34:28;26.22;55.99
65854;DHT22;52627;48.838;2.402;2022-09-13T18:36:55;26.18;56.08
65854;DHT22;52627;48.838;2.402;2022-09-13T18:39:23;26.16;56.17
65854;DHT22;52627;48.838;2.402;2022-09-13T18:41:51;26.14;56.36
65854;DHT22;52627;48.838;2.402;2022-09-13T18:44:18;26.12;56.48
65854;DHT22;52627;48.838;2.402;2022-09-13T18:46:46;26.09;56.67
65854;DHT22;52627;48.838;2.402;2022-09-13T18:49:14;26.06;56.73
65854;DHT22;52627;48.838;2.402;2022-09-13T18:51:42;26.04;56.88
65854;DHT22;52627;48.838;2.402;2022-09-13T18:54:11;26.01;57.07
65854;DHT22;52627;48.838;2.402;2022-09-13T18:56:42;26.00;57.21
65854;DHT22;52627;48.838;2.402;2022-09-13T18:59:11;25.97;57.33
65854;DHT22;52627;48.838;2.402;2022-09-13T19:01:40;25.95;57.49
65854;DHT22;52627;48.838;2.402;2022-09-13T19:04:13;25.93;57.70
65854;DHT22;52627;48.838;2.402;2022-09-13T19:06:53;25.92;57.93
65854;DHT22;52627;48.838;2.402;2022-09-13T19:09:23;25.87;58.26
65854;DHT22;52627;48.838;2.402;2022-09-13T19:11:51;25.82;58.60
65854;DHT22;52627;48.838;2.402;2022-09-13T19:14:21;25.77;58.84
65854;DHT22;52627;48.838;2.402;2022-09-13T19:16:56;25.71;58.99
65854;DHT22;52627;48.838;2.402;2022-09-13T19:19:30;25.68;59.09
65854;DHT22;52627;48.838;2.402;2022-09-13T19:21:58;25.65;59.20
65854;DHT22;52627;48.838;2.402;2022-09-13T19:24:25;25.64;59.47
65854;DHT22;52627;48.838;2.402;2022-09-13T19:26:53;25.65;59.92
65854;DHT22;52627;48.838;2.402;2022-09-13T19:29:21;25.66;60.52